createdAt,value
2018-04-19T00:00:03.535Z,72.08
2018-04-19T00:01:13.017Z,72.47
2018-04-19T00:02:22.531Z,72.85
2018-04-19T00:03:32.551Z,72.66
2018-04-19T00:04:41.760Z,73.04
2018-04-19T00:05:51.807Z,72.95
2018-04-19T00:07:01.287Z,72.66
2018-04-19T00:08:11.282Z,72.75
2018-04-19T00:09:21.015Z,72.66
2018-04-19T00:10:30.500Z,72.66
2018-04-19T00:11:39.977Z,72.75
2018-04-19T00:12:49.466Z,73.04
2018-04-19T00:13:59.264Z,73.62
2018-04-19T00:15:08.511Z,73.62
2018-04-19T00:16:17.728Z,74.19
2018-04-19T00:17:27.202Z,73.43
2018-04-19T00:18:37.199Z,73.14
2018-04-19T00:19:46.926Z,73.24
2018-04-19T00:20:56.690Z,73.14
2018-04-19T00:22:06.434Z,74.01
2018-04-19T00:23:16.177Z,73.52
2018-04-19T00:24:25.645Z,72.75
2018-04-19T00:25:35.108Z,73.14
2018-04-19T00:26:44.575Z,73.24
2018-04-19T00:27:54.304Z,72.85
2018-04-19T00:29:03.782Z,73.33
2018-04-19T00:30:13.524Z,73.72
2018-04-19T00:31:23.516Z,73.52
2018-04-19T00:32:32.971Z,72.81
2018-04-19T00:33:42.437Z,73.04
2018-04-19T00:34:51.896Z,72.66
2018-04-19T00:36:01.643Z,72.72
2018-04-19T00:37:11.424Z,72.91
2018-04-19T00:38:21.153Z,72.95
2018-04-19T00:39:30.620Z,72.75
2018-04-19T00:40:40.079Z,72.95
2018-04-19T00:41:50.088Z,72.72
2018-04-19T00:42:59.824Z,72.85
2018-04-19T00:44:09.626Z,71.51
2018-04-19T00:45:19.447Z,72.53
2018-04-19T00:46:29.433Z,72.72
2018-04-19T00:47:38.906Z,72.63
2018-04-19T00:48:48.640Z,72.43
2018-04-19T00:49:58.671Z,72.53
2018-04-19T00:51:08.682Z,72.14
2018-04-19T00:52:18.436Z,72.72
2018-04-19T00:53:28.738Z,72.05
2018-04-19T00:54:38.745Z,72.24
2018-04-19T00:55:48.742Z,72.14
2018-04-19T00:56:58.759Z,71.86
2018-04-19T00:58:08.498Z,71.95
2018-04-19T00:59:18.235Z,71.19
2018-04-19T01:00:27.980Z,70.61
2018-04-19T01:01:37.471Z,70.42
2018-04-19T01:02:47.469Z,70.7
2018-04-19T01:03:57.204Z,70.51
2018-04-19T01:05:06.681Z,70.61
2018-04-19T01:06:16.156Z,70.7
2018-04-19T01:07:25.631Z,70.99
2018-04-19T01:08:35.091Z,70.99
2018-04-19T01:09:45.087Z,70.61
2018-04-19T01:10:54.823Z,70.51
2018-04-19T01:12:04.563Z,70.99
2018-04-19T01:13:14.566Z,70.61
2018-04-19T01:14:24.577Z,70.99
2018-04-19T01:15:33.774Z,70.8
2018-04-19T01:16:43.502Z,70.61
2018-04-19T01:17:53.509Z,70.99
2018-04-19T01:19:03.510Z,71.19
2018-04-19T01:20:13.272Z,70.51
2018-04-19T01:21:22.761Z,70.23
2018-04-19T01:22:32.763Z,69.84
2018-04-19T01:23:42.764Z,70.03
2018-04-19T01:24:52.240Z,70.03
2018-04-19T01:26:01.983Z,69.93
2018-04-19T01:27:11.188Z,71.09
2018-04-19T01:28:20.929Z,71.09
2018-04-19T01:29:30.405Z,71.47
2018-04-19T01:30:39.869Z,71.47
2018-04-19T01:31:49.073Z,72.05
2018-04-19T01:32:58.813Z,72.05
2018-04-19T01:34:08.280Z,71.57
2018-04-19T01:35:18.277Z,71.47
2018-04-19T01:36:28.307Z,71.53
2018-04-19T01:37:38.055Z,71.47
2018-04-19T01:38:47.532Z,70.99
2018-04-19T01:39:57.542Z,71.53
2018-04-19T01:41:07.562Z,71.92
2018-04-19T01:42:17.299Z,72.59
2018-04-19T01:43:27.033Z,72.3
2018-04-19T01:44:36.495Z,71.92
2018-04-19T01:45:45.957Z,72.01
2018-04-19T01:46:55.692Z,72.11
2018-04-19T01:48:05.165Z,72.39
2018-04-19T01:49:15.176Z,72.49
2018-04-19T01:50:24.374Z,72.49
2018-04-19T01:51:34.362Z,72.59
2018-04-19T01:52:44.092Z,72.59
2018-04-19T01:53:53.835Z,72.68
2018-04-19T01:55:03.309Z,72.78
2018-04-19T01:56:13.055Z,72.59
2018-04-19T01:57:22.836Z,73.07
2018-04-19T01:58:32.847Z,73.65
2018-04-19T01:59:42.847Z,73.55
2018-04-19T02:00:52.853Z,73.65
2018-04-19T02:02:02.323Z,74.41
2018-04-19T02:03:12.055Z,74.51
2018-04-19T02:04:21.787Z,74.41
2018-04-19T02:05:31.526Z,73.93
2018-04-19T02:06:41.347Z,73.65
2018-04-19T02:07:51.087Z,73.93
2018-04-19T02:09:01.083Z,73.83
2018-04-19T02:10:10.811Z,73.45
2018-04-19T02:11:20.280Z,73.45
2018-04-19T02:12:30.033Z,74.12
2018-04-19T02:13:39.503Z,72.78
2018-04-19T02:14:49.241Z,73.07
2018-04-19T02:15:59.247Z,72.59
2018-04-19T02:17:08.973Z,72.78
2018-04-19T02:18:18.977Z,72.59
2018-04-19T02:19:28.975Z,72.64
2018-04-19T02:20:38.177Z,72.36
2018-04-19T02:21:47.912Z,72.49
2018-04-19T02:22:57.385Z,72.11
2018-04-19T02:24:06.586Z,73.07
2018-04-19T02:25:16.319Z,73.41
2018-04-19T02:26:26.056Z,72.78
2018-04-19T02:27:35.802Z,73.13
2018-04-19T02:28:45.265Z,73.03
2018-04-19T02:29:55.261Z,73.03
2018-04-19T02:31:05.280Z,72.59
2018-04-19T02:32:15.017Z,72.84
2018-04-19T02:33:24.234Z,73.07
2018-04-19T02:34:33.710Z,73.41
2018-04-19T02:35:43.525Z,73.7
2018-04-19T02:36:53.678Z,74.27
2018-04-19T02:38:03.691Z,74.08
2018-04-19T02:39:13.438Z,74.08
2018-04-19T02:40:22.921Z,74.27
2018-04-19T02:41:32.658Z,73.8
2018-04-19T02:42:42.127Z,73.32
2018-04-19T02:43:51.867Z,72.64
2018-04-19T02:45:01.613Z,72.84
2018-04-19T02:46:11.620Z,73.41
2018-04-19T02:47:21.368Z,73.41
2018-04-19T02:48:30.833Z,73.41
2018-04-19T02:49:40.652Z,72.64
2018-04-19T02:50:50.464Z,72.55
2018-04-19T02:51:59.977Z,72.84
2018-04-19T02:53:09.711Z,73.13
2018-04-19T02:54:19.188Z,72.84
2018-04-19T02:55:28.650Z,72.84
2018-04-19T02:56:38.397Z,73.61
2018-04-19T02:57:48.187Z,73.41
2018-04-19T02:58:57.666Z,73.32
2018-04-19T03:00:07.132Z,73.22
2018-04-19T03:01:16.340Z,73.22
2018-04-19T03:02:26.085Z,73.32
2018-04-19T03:03:35.559Z,73.32
2018-04-19T03:04:45.559Z,73.41
2018-04-19T03:05:55.293Z,73.41
2018-04-19T03:07:05.054Z,73.8
2018-04-19T03:08:15.059Z,74.08
2018-04-19T03:09:24.801Z,74.08
2018-04-19T03:10:34.549Z,74.27
2018-04-19T03:11:44.024Z,74.05
2018-04-19T03:12:53.761Z,74.43
2018-04-19T03:14:03.504Z,74.24
2018-04-19T03:15:12.966Z,74.62
2018-04-19T03:16:22.442Z,74.72
2018-04-19T03:17:32.469Z,75.1
2018-04-19T03:18:41.781Z,75.48
2018-04-19T03:19:51.772Z,75.77
2018-04-19T03:21:01.502Z,76.06
2018-04-19T03:22:11.003Z,75.77
2018-04-19T03:23:20.999Z,76.73
2018-04-19T03:24:30.998Z,76.73
2018-04-19T03:25:41.050Z,77.31
2018-04-19T03:26:50.562Z,76.54
2018-04-19T03:28:00.371Z,76.64
2018-04-19T03:29:10.102Z,76.54
2018-04-19T03:30:19.838Z,76.92
2018-04-19T03:31:29.580Z,76.82
2018-04-19T03:32:39.308Z,76.54
2018-04-19T03:33:49.042Z,76.92
2018-04-19T03:34:59.043Z,76.92
2018-04-19T03:36:09.042Z,77.21
2018-04-19T03:37:19.052Z,77.31
2018-04-19T03:38:28.784Z,77.11
2018-04-19T03:39:38.787Z,76.92
2018-04-19T03:40:48.903Z,77.21
2018-04-19T03:41:58.640Z,76.35
2018-04-19T03:43:08.113Z,75.96
2018-04-19T03:44:17.843Z,75.58
2018-04-19T03:45:27.572Z,75.39
2018-04-19T03:46:37.571Z,74.52
2018-04-19T03:47:47.565Z,73.76
2018-04-19T03:48:57.561Z,73.86
2018-04-19T03:50:07.024Z,74.43
2018-04-19T03:51:16.488Z,73.47
2018-04-19T03:52:26.482Z,73.28
2018-04-19T03:53:35.973Z,72.99
2018-04-19T03:54:45.967Z,73.38
2018-04-19T03:55:55.434Z,73.19
2018-04-19T03:57:05.162Z,72.9
2018-04-19T03:58:14.889Z,73.09
2018-04-19T03:59:24.356Z,72.52
2018-04-19T04:00:33.825Z,72.9
2018-04-19T04:01:43.293Z,72.9
2018-04-19T04:02:53.301Z,72.52
2018-04-19T04:04:03.287Z,72.71
2018-04-19T04:05:12.482Z,72.32
2018-04-19T04:06:21.950Z,71.56
2018-04-19T04:07:31.689Z,72.23
2018-04-19T04:08:41.427Z,71.56
2018-04-19T04:09:51.213Z,71.84
2018-04-19T04:11:00.688Z,72.03
2018-04-19T04:12:10.692Z,72.03
2018-04-19T04:13:20.162Z,71.94
2018-04-19T04:14:29.898Z,72.03
2018-04-19T04:15:39.359Z,71.84
2018-04-19T04:16:49.096Z,71.56
2018-04-19T04:17:58.559Z,71.75
2018-04-19T04:19:07.767Z,70.98
2018-04-19T04:20:17.767Z,71.4
2018-04-19T04:21:27.778Z,70.89
2018-04-19T04:22:37.783Z,71.84
2018-04-19T04:23:47.788Z,71.84
2018-04-19T04:24:57.860Z,71.37
2018-04-19T04:26:07.607Z,71.46
2018-04-19T04:27:17.343Z,71.46
2018-04-19T04:28:26.808Z,70.98
2018-04-19T04:29:36.272Z,70.21
2018-04-19T04:30:46.267Z,70.21
2018-04-19T04:31:55.730Z,70.12
2018-04-19T04:33:05.461Z,70.41
2018-04-19T04:34:14.929Z,71.08
2018-04-19T04:35:25.016Z,70.73
2018-04-19T04:36:34.219Z,70.89
2018-04-19T04:37:43.685Z,70.92
2018-04-19T04:38:53.419Z,70.89
2018-04-19T04:40:03.221Z,70.41
2018-04-19T04:41:12.689Z,70.7
2018-04-19T04:42:22.416Z,70.98
2018-04-19T04:43:32.460Z,70.12
2018-04-19T04:44:42.471Z,70.54
2018-04-19T04:45:52.211Z,71.02
2018-04-19T04:47:02.215Z,70.41
2018-04-19T04:48:11.683Z,70.35
2018-04-19T04:49:21.412Z,70.83
2018-04-19T04:50:31.147Z,71.4
2018-04-19T04:51:40.346Z,71.31
2018-04-19T04:52:50.099Z,70.83
2018-04-19T04:53:59.984Z,70.92
2018-04-19T04:55:09.500Z,71.4
2018-04-19T04:56:18.977Z,71.4
2018-04-19T04:57:28.975Z,71.88
2018-04-19T04:58:38.451Z,71.88
2018-04-19T04:59:48.451Z,71.59
2018-04-19T05:00:58.187Z,72.55
2018-04-19T05:02:07.934Z,71.88
2018-04-19T05:03:17.667Z,71.59
2018-04-19T05:04:27.667Z,71.59
2018-04-19T05:05:37.724Z,71.88
2018-04-19T05:06:47.400Z,72.45
2018-04-19T05:07:56.866Z,71.78
2018-04-19T05:09:06.333Z,71.59
2018-04-19T05:10:16.070Z,70.73
2018-04-19T05:11:25.539Z,70.54
2018-04-19T05:12:35.010Z,70.54
2018-04-19T05:13:44.739Z,69.87
2018-04-19T05:14:54.746Z,69.48
2018-04-19T05:16:04.777Z,70.09
2018-04-19T05:17:14.777Z,69.87
2018-04-19T05:18:24.516Z,70.35
2018-04-19T05:19:34.557Z,69.39
2018-04-19T05:20:44.560Z,69.52
2018-04-19T05:21:54.565Z,69.23
2018-04-19T05:23:04.566Z,69.52
2018-04-19T05:24:14.569Z,69.13
2018-04-19T05:25:24.037Z,68.85
2018-04-19T05:26:33.775Z,68.66
2018-04-19T05:27:43.506Z,68.75
2018-04-19T05:28:53.285Z,68.95
2018-04-19T05:30:03.283Z,68.95
2018-04-19T05:31:13.297Z,69.33
2018-04-19T05:32:22.767Z,69.13
2018-04-19T05:33:32.502Z,69.42
2018-04-19T05:34:41.706Z,68.95
2018-04-19T05:35:51.709Z,69.42
2018-04-19T05:37:01.704Z,69.62
2018-04-19T05:38:11.787Z,69.13
2018-04-19T05:39:21.528Z,69.9
2018-04-19T05:40:31.257Z,70.19
2018-04-19T05:41:41.008Z,70.19
2018-04-19T05:42:50.475Z,69.9
2018-04-19T05:44:00.478Z,70.29
2018-04-19T05:45:09.939Z,70.48
2018-04-19T05:46:19.933Z,70.48
2018-04-19T05:47:29.670Z,70.67
2018-04-19T05:48:39.414Z,70.96
2018-04-19T05:49:49.148Z,71.05
2018-04-19T05:50:59.144Z,70.76
2018-04-19T05:52:08.606Z,70.76
2018-04-19T05:53:18.347Z,71.63
2018-04-19T05:54:28.098Z,71.25
2018-04-19T05:55:37.892Z,71.15
2018-04-19T05:56:47.899Z,71.15
2018-04-19T05:57:57.654Z,71.19
2018-04-19T05:59:07.388Z,70.7
2018-04-19T06:00:17.393Z,70.7
2018-04-19T06:01:26.884Z,71.09
2018-04-19T06:02:36.616Z,70.99
2018-04-19T06:03:46.351Z,70.8
2018-04-19T06:04:56.374Z,70.8
2018-04-19T06:06:06.384Z,70.99
2018-04-19T06:07:15.842Z,70.7
2018-04-19T06:08:25.308Z,70.42
2018-04-19T06:09:35.108Z,70.23
2018-04-19T06:10:44.834Z,69.46
2018-04-19T06:11:54.320Z,69.36
2018-04-19T06:13:03.521Z,69.46
2018-04-19T06:14:13.518Z,69.84
2018-04-19T06:15:23.513Z,69.56
2018-04-19T06:16:33.508Z,69.07
2018-04-19T06:17:43.514Z,68.59
2018-04-19T06:18:52.991Z,68.21
2018-04-19T06:20:02.722Z,68.15
2018-04-19T06:21:12.465Z,67.47
2018-04-19T06:22:22.225Z,67.19
2018-04-19T06:23:31.700Z,67.96
2018-04-19T06:24:41.441Z,67.67
2018-04-19T06:25:51.454Z,67.76
2018-04-19T06:27:00.930Z,67.76
2018-04-19T06:28:10.405Z,66.52
2018-04-19T06:29:20.145Z,65.56
2018-04-19T06:30:30.169Z,64.02
2018-04-19T06:31:40.146Z,63.45
2018-04-19T06:32:49.888Z,62.58
2018-04-19T06:33:59.880Z,60.98
2018-04-19T06:35:09.084Z,60.98
2018-04-19T06:36:18.285Z,60.5
2018-04-19T06:37:28.284Z,60.02
2018-04-19T06:38:37.766Z,60.31
2018-04-19T06:39:47.501Z,60.21
2018-04-19T06:40:56.965Z,60.72
2018-04-19T06:42:06.709Z,61.3
2018-04-19T06:43:16.508Z,61.4
2018-04-19T06:44:26.508Z,62.16
2018-04-19T06:45:36.236Z,62.35
2018-04-19T06:46:45.714Z,62.45
2018-04-19T06:47:55.709Z,62.35
2018-04-19T06:49:05.009Z,62.26
2018-04-19T06:50:14.215Z,62.35
2018-04-19T06:51:24.308Z,62.35
2018-04-19T06:52:34.045Z,61.97
2018-04-19T06:53:43.516Z,61.97
2018-04-19T06:54:53.515Z,61.33
2018-04-19T06:56:03.242Z,60.85
2018-04-19T06:57:12.708Z,60.94
2018-04-19T06:58:22.442Z,60.56
2018-04-19T06:59:32.446Z,59.79
2018-04-19T07:00:42.464Z,59.12
2018-04-19T07:01:52.199Z,58.73
2018-04-19T07:03:01.928Z,58.83
2018-04-19T07:04:11.660Z,58.45
2018-04-19T07:05:21.421Z,58.15
2018-04-19T07:06:31.508Z,58.35
2018-04-19T07:07:41.313Z,57.48
2018-04-19T07:08:51.317Z,58.25
2018-04-19T07:10:01.323Z,57.51
2018-04-19T07:11:10.522Z,57.6
2018-04-19T07:12:20.536Z,57.7
2018-04-19T07:13:30.005Z,57.7
2018-04-19T07:14:40.077Z,57.32
2018-04-19T07:15:50.270Z,57.6
2018-04-19T07:17:00.001Z,57.6
2018-04-19T07:18:09.733Z,57.42
2018-04-19T07:19:19.199Z,57.51
2018-04-19T07:20:28.668Z,57.42
2018-04-19T07:21:38.137Z,57.22
2018-04-19T07:22:47.870Z,57.22
2018-04-19T07:23:57.621Z,56.26
2018-04-19T07:25:07.104Z,56.16
2018-04-19T07:26:16.837Z,56.26
2018-04-19T07:27:26.838Z,56.29
2018-04-19T07:28:36.567Z,56
2018-04-19T07:29:46.314Z,55.71
2018-04-19T07:30:55.518Z,55.9
2018-04-19T07:32:04.747Z,55.33
2018-04-19T07:33:14.653Z,54.94
2018-04-19T07:34:24.392Z,54.65
2018-04-19T07:35:34.128Z,54.36
2018-04-19T07:36:44.129Z,54.36
2018-04-19T07:37:54.130Z,54.08
2018-04-19T07:39:04.209Z,53.43
2018-04-19T07:40:14.465Z,52.85
2018-04-19T07:41:24.254Z,52.95
2018-04-19T07:42:33.468Z,52.75
2018-04-19T07:43:42.942Z,52.18
2018-04-19T07:44:52.685Z,52.47
2018-04-19T07:46:02.166Z,51.89
2018-04-19T07:47:11.696Z,51.79
2018-04-19T07:48:21.702Z,51.34
2018-04-19T07:49:31.445Z,50.83
2018-04-19T07:50:41.287Z,50.47
2018-04-19T07:51:51.054Z,50.95
2018-04-19T07:53:01.063Z,50.85
2018-04-19T07:54:10.822Z,50.76
2018-04-19T07:55:20.577Z,50.18
2018-04-19T07:56:30.316Z,49.22
2018-04-19T07:57:40.062Z,50.18
2018-04-19T07:58:49.805Z,50.27
2018-04-19T07:59:59.545Z,50.21
2018-04-19T08:01:09.019Z,50.3
2018-04-19T08:02:18.498Z,50.09
2018-04-19T08:03:27.991Z,49.53
2018-04-19T08:04:37.457Z,49.63
2018-04-19T08:05:46.927Z,49.05
2018-04-19T08:06:56.933Z,48.86
2018-04-19T08:08:06.749Z,48.95
2018-04-19T08:09:16.794Z,48.47
2018-04-19T08:10:26.797Z,47.89
2018-04-19T08:11:36.547Z,47.22
2018-04-19T08:12:46.565Z,47.72
2018-04-19T08:13:56.612Z,48.01
2018-04-19T08:15:06.385Z,47.92
2018-04-19T08:16:16.408Z,47.05
2018-04-19T08:17:26.158Z,47.14
2018-04-19T08:18:35.908Z,47.63
2018-04-19T08:19:45.129Z,47.14
2018-04-19T08:20:54.672Z,47.34
2018-04-19T08:22:04.475Z,46.08
2018-04-19T08:23:14.222Z,46.78
2018-04-19T08:24:23.698Z,46.88
2018-04-19T08:25:33.502Z,46.78
2018-04-19T08:26:43.322Z,45.82
2018-04-19T08:27:55.603Z,46.01
2018-04-19T08:29:05.375Z,46.13
2018-04-19T08:30:15.384Z,45.84
2018-04-19T08:31:24.916Z,46.03
2018-04-19T08:32:34.442Z,45.94
2018-04-19T08:33:43.670Z,45.26
2018-04-19T08:34:53.408Z,45.07
2018-04-19T08:36:03.283Z,44.39
2018-04-19T08:37:12.803Z,44.22
2018-04-19T08:38:22.550Z,43.84
2018-04-19T08:39:32.029Z,43.06
2018-04-19T08:40:41.267Z,43.06
2018-04-19T08:41:51.019Z,43.26
2018-04-19T08:43:03.982Z,42.87
2018-04-19T08:44:13.735Z,43.28
2018-04-19T08:45:23.751Z,42.5
2018-04-19T08:46:33.545Z,42.6
2018-04-19T08:47:42.756Z,42.6
2018-04-19T08:48:52.566Z,42.21
2018-04-19T08:50:01.792Z,41.54
2018-04-19T08:51:11.656Z,41.17
2018-04-19T08:52:21.438Z,40.98
2018-04-19T08:53:31.214Z,40.88
2018-04-19T08:54:40.682Z,41.08
2018-04-19T08:55:50.156Z,40.01
2018-04-19T08:56:59.895Z,39.74
2018-04-19T08:58:09.436Z,39.62
2018-04-19T08:59:19.686Z,39.36
2018-04-19T09:00:29.154Z,39.06
2018-04-19T09:01:38.696Z,39.45
2018-04-19T09:02:48.459Z,39.64
2018-04-19T09:03:58.496Z,39.45
2018-04-19T09:05:08.258Z,39.06
2018-04-19T09:06:18.348Z,39.36
2018-04-19T09:07:28.099Z,39.45
2018-04-19T09:08:37.834Z,38.1
2018-04-19T09:09:47.840Z,37.63
2018-04-19T09:10:57.605Z,37.34
2018-04-19T09:12:07.375Z,36.38
2018-04-19T09:13:17.116Z,36.28
2018-04-19T09:14:26.854Z,36.68
2018-04-19T09:15:36.345Z,35.81
2018-04-19T09:16:46.161Z,35.72
2018-04-19T09:17:56.168Z,35.81
2018-04-19T09:19:06.188Z,35.33
2018-04-19T09:20:16.268Z,34.07
2018-04-19T09:21:26.006Z,33.78
2018-04-19T09:22:34.951Z,34.17
2018-04-19T09:23:44.960Z,34.67
2018-04-19T09:24:54.447Z,34.38
2018-04-19T09:26:04.472Z,34.09
2018-04-19T09:27:13.986Z,34.09
2018-04-19T09:28:23.743Z,33.89
2018-04-19T09:29:33.255Z,33.41
2018-04-19T09:30:42.510Z,33.33
2018-04-19T09:31:52.276Z,34.01
2018-04-19T09:33:02.042Z,33.04
2018-04-19T09:34:11.603Z,33.14
2018-04-19T09:35:21.506Z,32.26
2018-04-19T09:36:31.507Z,31.87
2018-04-19T09:37:41.014Z,32.36
2018-04-19T09:38:50.797Z,32.56
2018-04-19T09:40:00.558Z,31.2
2018-04-19T09:41:09.832Z,31.49
2018-04-19T09:42:19.434Z,31.41
2018-04-19T09:43:29.254Z,31.21
2018-04-19T09:44:38.500Z,31.31
2018-04-19T09:45:48.521Z,30.92
2018-04-19T09:46:58.256Z,30.73
2018-04-19T09:48:08.264Z,30.34
2018-04-19T09:49:17.800Z,31.02
2018-04-19T09:50:27.550Z,30.15
2018-04-19T09:51:36.759Z,30.05
2018-04-19T09:52:45.966Z,30.44
2018-04-19T09:53:56.023Z,29.57
2018-04-19T09:55:06.115Z,30.07
2018-04-19T09:56:15.855Z,30.07
2018-04-19T09:57:25.597Z,29
2018-04-19T09:58:35.695Z,29
2018-04-19T09:59:45.795Z,28.32
2018-04-19T10:00:55.535Z,28.22
2018-04-19T10:02:05.337Z,28.8
2018-04-19T10:03:14.815Z,28.8
2018-04-19T10:04:24.623Z,29.1
2018-04-19T10:05:34.153Z,28.51
2018-04-19T10:06:43.900Z,27.84
2018-04-19T10:07:53.642Z,28.14
2018-04-19T10:09:03.155Z,28.33
2018-04-19T10:10:13.391Z,27.84
2018-04-19T10:11:23.119Z,27.28
2018-04-19T10:12:33.203Z,27.37
2018-04-19T10:13:42.982Z,27.47
2018-04-19T10:14:52.733Z,27.96
2018-04-19T10:16:02.957Z,27.37
2018-04-19T10:17:13.290Z,27.86
2018-04-19T10:18:23.107Z,27.08
2018-04-19T10:19:32.615Z,27.18
2018-04-19T10:20:41.855Z,27.1
2018-04-19T10:21:51.879Z,26.32
2018-04-19T10:23:01.696Z,26.61
2018-04-19T10:24:11.497Z,26.53
2018-04-19T10:25:21.602Z,27.31
2018-04-19T10:26:31.692Z,25.85
2018-04-19T10:27:41.171Z,26.62
2018-04-19T10:28:50.969Z,25.46
2018-04-19T10:30:00.513Z,25.67
2018-04-19T10:31:09.822Z,25.27
2018-04-19T10:32:19.827Z,25.67
2018-04-19T10:33:29.601Z,25.96
2018-04-19T10:34:39.790Z,24.98
2018-04-19T10:35:49.872Z,24.98
2018-04-19T10:36:59.408Z,24.6
2018-04-19T10:38:09.201Z,24.5
2018-04-19T10:39:19.033Z,24.61
2018-04-19T10:40:29.078Z,24.61
2018-04-19T10:41:38.898Z,24.8
2018-04-19T10:42:48.732Z,24.32
2018-04-19T10:43:58.583Z,24.04
2018-04-19T10:45:07.834Z,23.84
2018-04-19T10:46:17.615Z,23.45
2018-04-19T10:47:27.388Z,22.97
2018-04-19T10:48:37.127Z,23.55
2018-04-19T10:49:46.338Z,23.84
2018-04-19T10:50:56.343Z,24.23
2018-04-19T10:52:06.385Z,23.45
2018-04-19T10:53:16.513Z,23.25
2018-04-19T10:54:26.319Z,23.07
2018-04-19T10:55:36.074Z,22.97
2018-04-19T10:56:45.373Z,22.49
2018-04-19T10:57:55.466Z,22.3
2018-04-19T10:59:05.628Z,22.59
2018-04-19T11:00:15.165Z,23.17
2018-04-19T11:01:24.912Z,23.07
2018-04-19T11:02:34.653Z,23.56
2018-04-19T11:03:44.655Z,23.27
2018-04-19T11:04:54.138Z,22.78
2018-04-19T11:06:04.152Z,23.18
2018-04-19T11:07:13.362Z,22.41
2018-04-19T11:08:23.148Z,22.69
2018-04-19T11:09:32.907Z,22.21
2018-04-19T11:10:42.660Z,23.1
2018-04-19T11:11:52.663Z,22.02
2018-04-19T11:13:02.684Z,22.31
2018-04-19T11:14:12.165Z,21.83
2018-04-19T11:15:22.168Z,22.51
2018-04-19T11:16:31.920Z,21.15
2018-04-19T11:17:41.396Z,20.86
2018-04-19T11:18:51.129Z,21.35
2018-04-19T11:20:00.865Z,20.86
2018-04-19T11:21:10.882Z,19.7
2018-04-19T11:22:20.677Z,19.31
2018-04-19T11:23:30.438Z,19.5
2018-04-19T11:24:40.449Z,19.31
2018-04-19T11:25:50.451Z,19.02
2018-04-19T11:26:59.924Z,19.8
2018-04-19T11:28:09.672Z,19.81
2018-04-19T11:29:19.159Z,20.1
2018-04-19T11:30:28.901Z,20.5
2018-04-19T11:31:38.931Z,19.71
2018-04-19T11:32:48.940Z,19.53
2018-04-19T11:33:58.679Z,18.55
2018-04-19T11:35:08.416Z,18.07
2018-04-19T11:36:18.425Z,17.68
2018-04-19T11:37:27.901Z,17.48
2018-04-19T11:38:37.636Z,17.49
2018-04-19T11:39:47.657Z,16.8
2018-04-19T11:40:57.671Z,17.29
2018-04-19T11:42:07.145Z,16.71
2018-04-19T11:43:17.161Z,16.51
2018-04-19T11:44:27.035Z,16.8
2018-04-19T11:45:36.770Z,17.3
2018-04-19T11:46:46.513Z,17.3
2018-04-19T11:47:56.266Z,16.91
2018-04-19T11:49:06.521Z,16.91
2018-04-19T11:50:16.018Z,17
2018-04-19T11:51:26.059Z,17.02
2018-04-19T11:52:35.615Z,17.21
2018-04-19T11:53:45.469Z,16.92
2018-04-19T11:54:55.313Z,17.11
2018-04-19T11:56:05.095Z,16.05
2018-04-19T11:57:15.199Z,16.14
2018-04-19T11:58:24.845Z,16.83
2018-04-19T11:59:34.225Z,17.32
2018-04-19T12:00:44.217Z,15.95
2018-04-19T12:01:54.546Z,16.93
2018-04-19T12:03:36.604Z,17.61
2018-04-19T12:04:46.862Z,16.64
2018-04-19T12:05:56.862Z,16.83
2018-04-19T12:07:06.780Z,17.42
2018-04-19T12:08:16.910Z,17.12
2018-04-19T12:09:26.744Z,17.32
2018-04-19T12:10:36.094Z,16.74
2018-04-19T12:11:46.229Z,16.25
2018-04-19T12:12:56.099Z,16.44
2018-04-19T12:14:05.967Z,16.35
2018-04-19T12:15:15.071Z,16.85
2018-04-19T12:16:24.689Z,16.64
2018-04-19T12:17:34.781Z,17.04
2018-04-19T12:18:44.528Z,16.55
2018-04-19T12:19:54.274Z,16.35
2018-04-19T12:21:03.754Z,16.35
2018-04-19T12:22:13.501Z,16.16
2018-04-19T12:23:23.512Z,16.36
2018-04-19T12:24:33.597Z,16.27
2018-04-19T12:25:43.111Z,15.09
2018-04-19T12:26:52.931Z,14.79
2018-04-19T12:28:02.687Z,15.58
2018-04-19T12:29:12.703Z,15.19
2018-04-19T12:30:22.178Z,14.79
2018-04-19T12:31:32.172Z,15.19
2018-04-19T12:32:42.190Z,14.99
2018-04-19T12:33:51.953Z,15.48
2018-04-19T12:35:01.991Z,14.79
2018-04-19T12:36:12.003Z,15.67
2018-04-19T12:37:21.787Z,15.38
2018-04-19T12:38:31.321Z,15.38
2018-04-19T12:39:41.101Z,15.69
2018-04-19T12:40:50.870Z,15.39
2018-04-19T12:42:00.880Z,15.29
2018-04-19T12:43:10.352Z,15.3
2018-04-19T12:44:19.308Z,14.71
2018-04-19T12:45:29.054Z,14.12
2018-04-19T12:46:37.997Z,14.13
2018-04-19T12:47:48.000Z,14.13
2018-04-19T12:48:58.020Z,13.44
2018-04-19T12:50:07.988Z,13.15
2018-04-19T12:51:17.766Z,12.76
2018-04-19T12:52:26.717Z,12.66
2018-04-19T12:53:36.466Z,13.54
2018-04-19T12:54:46.818Z,13.93
2018-04-19T12:55:58.185Z,13.24
2018-04-19T12:57:08.208Z,12.96
2018-04-19T12:58:18.937Z,12.37
2018-04-19T12:59:28.714Z,11.78
2018-04-19T13:00:37.928Z,12.37
2018-04-19T13:01:47.697Z,12.86
2018-04-19T13:02:57.712Z,12.27
2018-04-19T13:04:07.721Z,12.08
2018-04-19T13:05:17.735Z,12.27
2018-04-19T13:06:28.006Z,11.59
2018-04-19T13:07:38.113Z,11.49
2018-04-19T13:08:48.126Z,11.19
2018-04-19T13:09:58.161Z,10.71
2018-04-19T13:11:07.643Z,11.3
2018-04-19T13:12:17.657Z,12.38
2018-04-19T13:13:27.699Z,12.18
2018-04-19T13:14:37.454Z,11.79
2018-04-19T13:15:47.206Z,11.79
2018-04-19T13:16:56.948Z,11.5
2018-04-19T13:18:07.059Z,10.61
2018-04-19T13:19:16.888Z,11.21
2018-04-19T13:20:26.671Z,10.32
2018-04-19T13:21:35.891Z,11.5
2018-04-19T13:22:45.667Z,11.8
2018-04-19T13:23:55.148Z,11.8
2018-04-19T13:25:04.899Z,11.6
2018-04-19T13:26:14.667Z,11.7
2018-04-19T13:27:24.417Z,10.92
2018-04-19T13:28:33.930Z,10.52
2018-04-19T13:29:43.945Z,9.93
2018-04-19T13:30:53.425Z,9.83
2018-04-19T13:32:03.191Z,9.93
2018-04-19T13:33:13.210Z,10.82
2018-04-19T13:34:23.237Z,10.24
2018-04-19T13:35:33.260Z,9.25
2018-04-19T13:36:43.282Z,9.34
2018-04-19T13:37:53.380Z,9.44
2018-04-19T13:39:02.598Z,10.13
2018-04-19T13:40:12.339Z,9.74
2018-04-19T13:41:22.088Z,9.84
2018-04-19T13:42:31.857Z,10.33
2018-04-19T13:43:41.607Z,10.04
2018-04-19T13:44:51.629Z,9.94
2018-04-19T13:46:01.613Z,9.94
2018-04-19T13:47:11.835Z,9.94
2018-04-19T13:48:21.584Z,9.94
2018-04-19T13:49:31.329Z,10.04
2018-04-19T13:50:40.825Z,9.84
2018-04-19T13:51:50.578Z,9.94
2018-04-19T13:53:00.584Z,9.94
2018-04-19T13:54:10.098Z,9.95
2018-04-19T13:55:19.883Z,10.14
2018-04-19T13:56:29.365Z,10.24
2018-04-19T13:57:39.106Z,9.45
2018-04-19T13:58:48.857Z,9.75
2018-04-19T13:59:58.876Z,9.95
2018-04-19T14:01:08.642Z,9.45
2018-04-19T14:02:18.420Z,9.45
2018-04-19T14:03:28.437Z,10.05
2018-04-19T14:04:37.915Z,9.36
2018-04-19T14:05:47.137Z,9.56
2018-04-19T14:06:57.056Z,9.75
2018-04-19T14:08:06.562Z,9.95
2018-04-19T14:09:16.219Z,10.05
2018-04-19T14:10:26.238Z,10.15
2018-04-19T14:11:36.269Z,9.56
2018-04-19T14:12:46.310Z,9.56
2018-04-19T14:13:56.322Z,10.05
2018-04-19T14:15:06.076Z,9.56
2018-04-19T14:16:15.830Z,9.66
2018-04-19T14:17:25.314Z,9.95
2018-04-19T14:18:35.066Z,9.56
2018-04-19T14:19:44.574Z,9.56
2018-04-19T14:20:54.747Z,8.38
2018-04-19T14:22:04.764Z,8.58
2018-04-19T14:23:14.241Z,8.97
2018-04-19T14:24:23.992Z,7.39
2018-04-19T14:25:33.488Z,7.69
2018-04-19T14:26:43.497Z,8.18
2018-04-19T14:27:53.538Z,9.56
2018-04-19T14:29:03.010Z,9.56
2018-04-19T14:30:12.501Z,8.38
2018-04-19T14:31:22.275Z,8.97
2018-04-19T14:32:32.023Z,8.77
2018-04-19T14:33:42.063Z,8.28
2018-04-19T14:34:51.543Z,8.97
2018-04-19T14:36:01.021Z,8.87
2018-04-19T14:37:10.555Z,8.28
2018-04-19T14:38:20.373Z,7.79
2018-04-19T14:39:29.776Z,9.08
2018-04-19T14:40:39.755Z,8.68
2018-04-19T14:41:49.966Z,8.58
2018-04-19T14:42:59.682Z,8.28
2018-04-19T14:44:09.422Z,8.48
2018-04-19T14:45:19.329Z,8.19
2018-04-19T14:46:29.016Z,7.4
2018-04-19T14:47:38.669Z,8.19
2018-04-19T14:48:48.905Z,8.19
2018-04-19T14:49:58.341Z,9.17
2018-04-19T14:51:07.993Z,8.58
2018-04-19T14:52:17.298Z,8.09
2018-04-19T14:53:26.982Z,8.19
2018-04-19T14:54:37.302Z,7.99
2018-04-19T14:55:47.473Z,7.6
2018-04-19T14:56:57.292Z,7.7
2018-04-19T14:58:06.683Z,8.09
2018-04-19T14:59:16.928Z,8.29
2018-04-19T15:00:26.774Z,8.88
2018-04-19T15:01:35.957Z,8.98
2018-04-19T15:02:45.880Z,8.48
2018-04-19T15:03:55.812Z,8.39